createdAt,value
2023-02-04T00:00:38.793Z,1.00
2023-02-04T00:03:07.404Z,1.00
2023-02-04T00:05:35.849Z,1.00
2023-02-04T00:08:07.021Z,1.00
2023-02-04T00:10:37.090Z,1.00
2023-02-04T00:13:05.541Z,1.00
2023-02-04T00:15:33.925Z,1.00
2023-02-04T00:18:02.076Z,1.00
2023-02-04T00:20:30.538Z,1.00
2023-02-04T00:22:58.954Z,1.00
2023-02-04T00:25:27.534Z,1.00
2023-02-04T00:27:57.091Z,1.00
2023-02-04T00:30:25.217Z,1.00
2023-02-04T00:32:55.033Z,1.00
2023-02-04T00:35:23.822Z,1.00
2023-02-04T00:37:52.172Z,1.00
2023-02-04T00:40:20.662Z,1.00
2023-02-04T00:42:48.770Z,1.00
2023-02-04T00:45:18.359Z,1.00
2023-02-04T00:47:46.488Z,1.00
2023-02-04T00:50:14.627Z,1.00
2023-02-04T00:52:42.732Z,1.00
2023-02-04T00:55:12.317Z,1.00
2023-02-04T00:57:40.662Z,1.00
2023-02-04T01:00:10.175Z,1.00
2023-02-04T01:02:40.724Z,1.00
2023-02-04T01:05:09.474Z,1.00
2023-02-04T01:07:37.904Z,1.00
2023-02-04T01:10:06.830Z,1.00
2023-02-04T01:12:35.161Z,1.00
2023-02-04T01:15:03.436Z,1.00
2023-02-04T01:17:31.457Z,1.00
2023-02-04T01:20:00.861Z,1.00
2023-02-04T01:22:28.923Z,1.00
2023-02-04T01:24:56.954Z,1.00
2023-02-04T01:27:25.114Z,1.00
2023-02-04T01:29:53.188Z,1.00
2023-02-04T01:32:21.254Z,1.00
2023-02-04T01:34:49.384Z,1.00
2023-02-04T01:37:18.964Z,1.00
2023-02-04T01:39:47.090Z,1.00
2023-02-04T01:42:15.219Z,1.00
2023-02-04T01:44:43.310Z,1.00
2023-02-04T01:47:12.167Z,1.50
2023-02-04T01:49:40.341Z,1.00
2023-02-04T01:52:08.850Z,1.00
2023-02-04T01:54:38.461Z,1.00
2023-02-04T01:57:11.198Z,3.60
2023-02-04T01:59:42.492Z,9.20
2023-02-04T02:02:41.593Z,21.00
2023-02-04T02:05:11.321Z,26.20
2023-02-04T02:07:40.029Z,36.90
2023-02-04T02:10:13.412Z,30.60
2023-02-04T02:12:42.604Z,1.00
2023-02-04T02:15:12.274Z,1.00
2023-02-04T02:17:40.981Z,1.00
2023-02-04T02:20:10.667Z,1.00
2023-02-04T02:22:45.626Z,1.00
2023-02-04T02:25:16.442Z,1.00
2023-02-04T02:27:45.267Z,1.00
2023-02-04T02:30:14.881Z,1.00
2023-02-04T02:32:43.076Z,1.00
2023-02-04T02:35:11.248Z,1.00
2023-02-04T02:37:39.536Z,1.00
2023-02-04T02:40:09.120Z,1.00
2023-02-04T02:42:38.958Z,1.00
2023-02-04T02:45:19.404Z,1.00
2023-02-04T02:47:47.479Z,1.00
2023-02-04T02:50:20.413Z,1.00
2023-02-04T02:52:48.794Z,1.00
2023-02-04T02:55:19.119Z,1.00
2023-02-04T02:57:49.925Z,1.00
2023-02-04T03:00:20.657Z,1.00
2023-02-04T03:02:57.102Z,1.00
2023-02-04T03:05:25.968Z,1.00
2023-02-04T03:07:54.283Z,1.00
2023-02-04T03:10:22.332Z,1.00
2023-02-04T03:12:51.787Z,1.00
2023-02-04T03:15:19.999Z,1.00
2023-02-04T03:17:48.484Z,1.00
2023-02-04T03:20:17.516Z,1.00
2023-02-04T03:22:45.675Z,1.00
2023-02-04T03:25:13.841Z,1.00
2023-02-04T03:27:42.109Z,1.00
2023-02-04T03:30:12.474Z,1.00
2023-02-04T03:32:41.811Z,1.00
2023-02-04T03:35:10.156Z,1.00
2023-02-04T03:37:38.280Z,1.00
2023-02-04T03:40:07.182Z,1.00
2023-02-04T03:42:35.266Z,1.00
2023-02-04T03:45:03.362Z,1.00
2023-02-04T03:47:32.712Z,1.00
2023-02-04T03:50:00.772Z,1.00
2023-02-04T03:52:28.765Z,1.00
2023-02-04T03:54:56.824Z,1.00
2023-02-04T03:57:24.902Z,1.00
2023-02-04T03:59:53.051Z,1.00
2023-02-04T04:02:21.071Z,1.00
2023-02-04T04:04:50.534Z,1.00
2023-02-04T04:07:18.608Z,1.00
2023-02-04T04:09:46.670Z,1.00
2023-02-04T04:12:14.791Z,1.00
2023-02-04T04:14:42.857Z,1.00
2023-02-04T04:17:10.945Z,1.00
2023-02-04T04:19:39.052Z,1.00
2023-02-04T04:22:08.622Z,1.00
2023-02-04T04:24:36.716Z,1.00
2023-02-04T04:27:04.936Z,1.00
2023-02-04T04:29:33.113Z,1.00
2023-02-04T04:32:01.325Z,1.00
2023-02-04T04:34:29.461Z,1.00
2023-02-04T04:36:57.638Z,1.00
2023-02-04T04:39:27.062Z,1.00
2023-02-04T04:41:55.117Z,1.00
2023-02-04T04:44:23.388Z,1.00
2023-02-04T04:46:51.485Z,1.00
2023-02-04T04:49:19.530Z,1.00
2023-02-04T04:51:47.692Z,1.00
2023-02-04T04:54:15.770Z,1.00
2023-02-04T04:56:45.231Z,1.00
2023-02-04T04:59:13.300Z,1.00
2023-02-04T05:01:41.327Z,1.00
2023-02-04T05:04:09.330Z,1.00
2023-02-04T05:06:37.389Z,1.00
2023-02-04T05:09:05.651Z,1.00
2023-02-04T05:11:33.704Z,1.00
2023-02-04T05:14:03.182Z,9.40
2023-02-04T05:16:31.305Z,4.80
2023-02-04T05:18:59.414Z,1.70
2023-02-04T05:21:27.431Z,1.00
2023-02-04T05:23:55.697Z,1.00
2023-02-04T05:26:30.286Z,1.00
2023-02-04T05:29:00.376Z,1.00
2023-02-04T05:31:30.043Z,1.00
2023-02-04T05:33:58.196Z,1.00
2023-02-04T05:36:26.247Z,1.00
2023-02-04T05:38:54.935Z,1.00
2023-02-04T05:41:23.155Z,1.00
2023-02-04T05:43:51.334Z,1.00
2023-02-04T05:46:19.506Z,1.00
2023-02-04T05:48:48.973Z,1.00
2023-02-04T05:51:17.372Z,1.00
2023-02-04T05:53:45.531Z,1.00
2023-02-04T05:56:13.621Z,1.00
2023-02-04T05:58:41.711Z,1.00
2023-02-04T06:01:10.696Z,1.00
2023-02-04T06:03:38.855Z,1.00
2023-02-04T06:06:08.494Z,1.00
2023-02-04T06:08:36.937Z,1.00
2023-02-04T06:11:05.034Z,1.00
2023-02-04T06:13:33.152Z,1.00
2023-02-04T06:16:01.193Z,1.00
2023-02-04T06:18:29.216Z,1.00
2023-02-04T06:20:57.262Z,1.00
2023-02-04T06:23:26.798Z,1.00
2023-02-04T06:25:55.279Z,1.00
2023-02-04T06:28:23.375Z,1.00
2023-02-04T06:30:51.675Z,1.00
2023-02-04T06:33:21.365Z,1.00
2023-02-04T06:35:49.473Z,1.00
2023-02-04T06:38:17.543Z,1.00
2023-02-04T06:40:49.426Z,1.00
2023-02-04T06:43:17.601Z,1.00
2023-02-04T06:45:45.745Z,1.00
2023-02-04T06:48:14.212Z,1.00
2023-02-04T06:50:42.253Z,1.00
2023-02-04T06:53:10.516Z,1.00
2023-02-04T06:55:38.705Z,1.00
2023-02-04T06:58:08.088Z,1.00
2023-02-04T07:00:36.130Z,1.00
2023-02-04T07:03:04.351Z,1.00
2023-02-04T07:05:32.534Z,1.00
2023-02-04T07:08:00.677Z,1.00
2023-02-04T07:10:28.783Z,1.00
2023-02-04T07:12:56.952Z,1.00
2023-02-04T07:15:26.385Z,1.00
2023-02-04T07:17:54.782Z,1.00
2023-02-04T07:20:22.870Z,1.00
2023-02-04T07:22:50.928Z,1.00
2023-02-04T07:25:19.154Z,1.00
2023-02-04T07:27:47.344Z,1.00
2023-02-04T07:30:15.987Z,1.00
2023-02-04T07:32:45.511Z,1.00
2023-02-04T07:35:13.598Z,1.00
2023-02-04T07:37:41.684Z,1.00
2023-02-04T07:40:11.362Z,1.00
2023-02-04T07:42:39.499Z,1.00
2023-02-04T07:45:08.477Z,1.00
2023-02-04T07:47:36.603Z,1.00
2023-02-04T07:50:06.801Z,1.00
2023-02-04T07:52:34.886Z,1.00
2023-02-04T07:55:03.016Z,1.00
2023-02-04T07:57:31.218Z,1.00
2023-02-04T07:59:59.371Z,1.00
2023-02-04T08:02:27.986Z,1.00
2023-02-04T08:04:56.350Z,1.00
2023-02-04T08:07:26.090Z,1.00
2023-02-04T08:09:54.220Z,1.00
2023-02-04T08:12:22.249Z,1.00
2023-02-04T08:14:50.275Z,1.00
2023-02-04T08:17:18.372Z,1.00
2023-02-04T08:19:46.431Z,1.00
2023-02-04T08:22:14.449Z,1.00
2023-02-04T08:24:44.037Z,1.00
2023-02-04T08:27:12.250Z,1.00
2023-02-04T08:29:40.343Z,1.00
2023-02-04T08:32:10.094Z,1.00
2023-02-04T08:34:38.503Z,1.00
2023-02-04T08:37:06.583Z,1.00
2023-02-04T08:39:34.741Z,1.00
2023-02-04T08:42:04.164Z,1.00
2023-02-04T08:44:32.312Z,1.00
2023-02-04T08:47:00.528Z,1.00
2023-02-04T08:49:28.849Z,1.00
2023-02-04T08:51:57.073Z,1.00
2023-02-04T08:54:26.228Z,99.90
2023-02-04T08:56:54.307Z,99.90
2023-02-04T08:59:24.191Z,99.90
2023-02-04T09:01:52.706Z,1.00
2023-02-04T09:04:21.292Z,1.00
2023-02-04T09:06:49.992Z,99.90
2023-02-04T09:09:18.452Z,99.90
2023-02-04T09:11:47.109Z,99.90
2023-02-04T09:14:15.643Z,99.90
2023-02-04T09:16:45.277Z,29.10
2023-02-04T09:19:16.344Z,94.00
2023-02-04T09:21:44.622Z,99.90
2023-02-04T09:24:12.659Z,17.90
2023-02-04T09:26:40.789Z,99.90
2023-02-04T09:29:09.150Z,1.00
2023-02-04T09:31:37.451Z,99.90
2023-02-04T09:34:07.226Z,1.00
2023-02-04T09:36:37.997Z,1.00
2023-02-04T09:39:07.132Z,29.10
2023-02-04T09:41:35.540Z,99.90
2023-02-04T09:44:05.703Z,99.90
2023-02-04T09:46:34.943Z,99.90
2023-02-04T09:49:03.585Z,99.90
2023-02-04T09:51:35.939Z,1.00
2023-02-04T09:54:09.961Z,99.90
2023-02-04T09:56:38.335Z,86.10
2023-02-04T09:59:07.761Z,99.90
2023-02-04T10:01:36.003Z,99.90
2023-02-04T10:04:05.016Z,99.90
2023-02-04T10:06:34.937Z,1.00
2023-02-04T10:09:03.370Z,99.90
2023-02-04T10:11:33.822Z,1.00
2023-02-04T10:14:02.116Z,1.00
2023-02-04T10:16:32.616Z,1.00
2023-02-04T10:19:04.992Z,1.00
2023-02-04T10:21:36.803Z,1.00
2023-02-04T10:24:11.436Z,1.00
2023-02-04T10:26:39.590Z,99.90
2023-02-04T10:29:14.101Z,99.90
2023-02-04T10:31:44.601Z,19.40
2023-02-04T10:34:18.119Z,1.00
2023-02-04T10:36:49.393Z,36.80
2023-02-04T10:39:20.170Z,99.90
2023-02-04T10:41:50.745Z,99.90
2023-02-04T10:44:21.216Z,99.90
2023-02-04T10:46:49.457Z,98.60
2023-02-04T10:49:22.767Z,34.10
2023-02-04T10:51:53.784Z,1.00
2023-02-04T10:54:33.901Z,10.80
2023-02-04T10:57:08.788Z,1.00
2023-02-04T10:59:38.139Z,1.00
2023-02-04T11:02:32.840Z,1.00
2023-02-04T11:05:01.518Z,1.00
2023-02-04T11:07:31.378Z,1.00
2023-02-04T11:09:59.550Z,7.80
2023-02-04T11:12:39.678Z,1.00
2023-02-04T11:15:09.321Z,24.90
2023-02-04T11:17:37.391Z,1.00
2023-02-04T11:20:16.124Z,1.00
2023-02-04T11:22:49.401Z,1.00
2023-02-04T11:25:34.341Z,1.00
2023-02-04T11:28:14.192Z,2.30
2023-02-04T11:30:42.443Z,50.80
2023-02-04T11:33:24.588Z,1.00
2023-02-04T11:36:04.456Z,43.30
2023-02-04T11:38:34.932Z,1.00
2023-02-04T11:41:03.576Z,1.00
2023-02-04T11:43:35.426Z,1.00
2023-02-04T11:46:13.885Z,1.00
2023-02-04T11:48:42.539Z,1.00
2023-02-04T11:51:15.414Z,1.00
2023-02-04T11:53:45.158Z,11.60
2023-02-04T11:56:19.196Z,1.00
2023-02-04T11:58:49.358Z,1.00
2023-02-04T12:01:21.515Z,1.00
2023-02-04T12:03:51.428Z,1.00
2023-02-04T12:06:23.419Z,1.00
2023-02-04T12:08:52.958Z,1.00
2023-02-04T12:11:30.510Z,1.00
2023-02-04T12:14:00.911Z,1.00
2023-02-04T12:16:29.146Z,1.00
2023-02-04T12:18:57.252Z,1.00
2023-02-04T12:21:25.374Z,1.00
2023-02-04T12:23:54.936Z,1.00
2023-02-04T12:26:22.955Z,1.00
2023-02-04T12:28:51.081Z,1.00
2023-02-04T12:31:19.434Z,1.00
2023-02-04T12:33:47.765Z,1.00
2023-02-04T12:36:15.853Z,1.00
2023-02-04T12:38:43.927Z,1.00
2023-02-04T12:41:13.592Z,1.00
2023-02-04T12:43:41.718Z,1.00
2023-02-04T12:46:10.000Z,1.00
2023-02-04T12:48:41.098Z,1.00
2023-02-04T12:51:09.344Z,1.00
2023-02-04T12:53:37.426Z,1.00
2023-02-04T12:56:06.208Z,1.00
2023-02-04T12:58:35.633Z,1.00
2023-02-04T13:01:04.475Z,1.00
2023-02-04T13:03:32.968Z,1.00
2023-02-04T13:06:01.142Z,99.90
2023-02-04T13:08:29.174Z,99.90
2023-02-04T13:10:57.328Z,99.90
2023-02-04T13:13:25.419Z,99.90
2023-02-04T13:15:54.924Z,99.90
2023-02-04T13:18:23.058Z,99.90
2023-02-04T13:20:51.198Z,99.90
2023-02-04T13:23:19.556Z,99.90
2023-02-04T13:25:47.792Z,99.90
2023-02-04T13:28:16.139Z,99.90
2023-02-04T13:30:44.276Z,99.90
2023-02-04T13:33:13.769Z,99.90
2023-02-04T13:35:41.849Z,99.90
2023-02-04T13:38:09.887Z,99.90
2023-02-04T13:40:39.254Z,1.00
2023-02-04T13:43:07.426Z,1.00
2023-02-04T13:45:35.863Z,99.90
2023-02-04T13:48:04.344Z,99.90
2023-02-04T13:50:34.321Z,99.90
2023-02-04T13:53:02.750Z,99.90
2023-02-04T13:55:31.415Z,99.90
2023-02-04T13:57:59.791Z,99.90
2023-02-04T14:00:28.173Z,99.90
2023-02-04T14:02:57.568Z,99.90
2023-02-04T14:05:25.745Z,99.90
2023-02-04T14:07:55.430Z,99.90
2023-02-04T14:10:25.033Z,99.90
2023-02-04T14:12:53.136Z,99.90
2023-02-04T14:15:21.770Z,99.90
2023-02-04T14:17:50.634Z,99.90
2023-02-04T14:20:19.993Z,99.90
2023-02-04T14:22:48.034Z,99.90
2023-02-04T14:25:18.154Z,99.90
2023-02-04T14:27:46.370Z,99.90
2023-02-04T14:30:18.790Z,99.90
2023-02-04T14:32:46.892Z,99.90
2023-02-04T14:35:16.335Z,99.90
2023-02-04T14:37:47.952Z,99.90
2023-02-04T14:40:19.112Z,99.90
2023-02-04T14:42:47.795Z,99.90
2023-02-04T14:45:16.442Z,99.90
2023-02-04T14:47:44.641Z,99.90
2023-02-04T14:50:15.740Z,99.90
2023-02-04T14:52:44.065Z,99.90
2023-02-04T14:55:12.993Z,99.90
2023-02-04T14:57:42.794Z,99.90
2023-02-04T15:00:12.229Z,99.90
2023-02-04T15:02:41.332Z,99.90
2023-02-04T15:05:10.629Z,99.90
2023-02-04T15:07:38.885Z,99.90
2023-02-04T15:10:08.125Z,99.90
2023-02-04T15:12:37.484Z,99.90
2023-02-04T15:15:08.921Z,99.90
2023-02-04T15:17:38.284Z,99.90
2023-02-04T15:20:08.633Z,99.90
2023-02-04T15:22:37.017Z,99.90
2023-02-04T15:25:06.656Z,99.90
2023-02-04T15:27:35.199Z,99.90
2023-02-04T15:30:03.381Z,99.90
2023-02-04T15:32:32.987Z,99.90
2023-02-04T15:35:01.053Z,99.90
2023-02-04T15:37:29.210Z,99.90
2023-02-04T15:39:57.314Z,99.90
2023-02-04T15:42:25.477Z,99.90
2023-02-04T15:44:54.249Z,99.90
2023-02-04T15:47:22.319Z,99.90
2023-02-04T15:49:52.004Z,99.90
2023-02-04T15:52:25.120Z,99.90
2023-02-04T15:54:53.781Z,99.90
2023-02-04T15:57:21.927Z,99.90
2023-02-04T15:59:50.032Z,99.90
2023-02-04T16:02:18.165Z,99.90
2023-02-04T16:04:47.916Z,99.90
2023-02-04T16:07:17.558Z,99.90
2023-02-04T16:09:45.707Z,99.90
2023-02-04T16:12:15.112Z,99.90
2023-02-04T16:14:43.242Z,99.90
2023-02-04T16:17:11.346Z,99.90
2023-02-04T16:19:39.416Z,99.90
2023-02-04T16:22:09.849Z,99.90
2023-02-04T16:24:39.650Z,99.90
2023-02-04T16:27:07.788Z,99.90
2023-02-04T16:29:35.809Z,99.90
2023-02-04T16:32:03.976Z,99.90
2023-02-04T16:34:32.117Z,99.90
2023-02-04T16:37:00.196Z,99.90
2023-02-04T16:39:28.469Z,99.90
2023-02-04T16:41:58.058Z,99.90
2023-02-04T16:44:26.326Z,99.90
2023-02-04T16:46:55.057Z,99.90
2023-02-04T16:49:23.324Z,99.90
2023-02-04T16:51:51.371Z,99.90
2023-02-04T16:54:19.579Z,99.90
2023-02-04T16:56:47.648Z,99.90
2023-02-04T16:59:17.136Z,99.90
2023-02-04T17:01:45.388Z,99.90
2023-02-04T17:04:13.605Z,99.90
2023-02-04T17:06:42.330Z,99.90
2023-02-04T17:09:10.502Z,99.90
2023-02-04T17:11:38.714Z,99.90
2023-02-04T17:14:09.145Z,99.90
2023-02-04T17:16:38.955Z,99.90
2023-02-04T17:19:07.103Z,99.90
2023-02-04T17:21:35.147Z,99.90
2023-02-04T17:24:04.758Z,99.90
2023-02-04T17:26:37.516Z,99.90
2023-02-04T17:29:06.965Z,99.90
2023-02-04T17:31:35.480Z,99.90
2023-02-04T17:34:05.333Z,99.90
2023-02-04T17:36:34.004Z,99.90
2023-02-04T17:39:02.466Z,99.90
2023-02-04T17:41:31.231Z,99.90
2023-02-04T17:44:00.098Z,99.90
2023-02-04T17:46:28.364Z,99.90
2023-02-04T17:48:56.541Z,99.90
2023-02-04T17:51:25.981Z,99.90
2023-02-04T17:53:54.102Z,99.90
2023-02-04T17:56:22.257Z,99.90
2023-02-04T17:58:50.551Z,99.90
2023-02-04T18:01:23.759Z,99.90
2023-02-04T18:03:52.256Z,99.90
2023-02-04T18:06:23.789Z,99.90
2023-02-04T18:08:56.474Z,1.00
2023-02-04T18:11:27.832Z,1.00
2023-02-04T18:13:58.782Z,1.00
2023-02-04T18:16:28.554Z,1.00
2023-02-04T18:18:58.690Z,1.00
2023-02-04T18:21:28.502Z,1.00
2023-02-04T18:24:18.351Z,1.00
2023-02-04T18:26:49.400Z,1.00
2023-02-04T18:29:33.892Z,1.00
2023-02-04T18:32:04.504Z,1.00
2023-02-04T18:34:36.761Z,1.00
2023-02-04T18:37:30.349Z,1.00
2023-02-04T18:40:31.183Z,1.00
2023-02-04T18:43:13.220Z,1.00
2023-02-04T18:45:42.287Z,1.00
2023-02-04T18:48:56.142Z,1.00
2023-02-04T18:51:28.868Z,1.00
2023-02-04T18:54:01.368Z,1.00
2023-02-04T18:56:37.127Z,1.00
2023-02-04T18:59:17.034Z,1.00
2023-02-04T19:01:46.951Z,1.00
2023-02-04T19:04:21.343Z,1.00
2023-02-04T19:06:52.297Z,1.00
2023-02-04T19:09:24.913Z,1.00
2023-02-04T19:11:55.449Z,1.00
2023-02-04T19:14:28.807Z,1.00
2023-02-04T19:17:08.873Z,1.00
2023-02-04T19:19:38.923Z,1.00
2023-02-04T19:22:18.394Z,1.00
2023-02-04T19:24:47.217Z,1.00
2023-02-04T19:27:32.501Z,1.00
2023-02-04T19:30:03.020Z,1.00
2023-02-04T19:32:41.040Z,1.00
2023-02-04T19:35:21.632Z,1.00
2023-02-04T19:37:55.031Z,1.00
2023-02-04T19:40:29.888Z,1.00
2023-02-04T19:43:15.036Z,1.00
2023-02-04T19:45:43.626Z,1.00
2023-02-04T19:48:22.926Z,81.90
2023-02-04T19:50:53.780Z,99.90
2023-02-04T19:53:24.078Z,99.90
2023-02-04T19:55:53.471Z,40.60
2023-02-04T19:58:25.884Z,92.00
2023-02-04T20:00:59.424Z,73.70
2023-02-04T20:03:41.209Z,99.90
2023-02-04T20:06:30.259Z,99.90
2023-02-04T20:09:12.306Z,99.90
2023-02-04T20:11:54.307Z,99.90
2023-02-04T20:14:30.319Z,28.60
2023-02-04T20:17:00.435Z,99.90
2023-02-04T20:19:35.303Z,99.90
2023-02-04T20:22:35.848Z,99.90
2023-02-04T20:25:41.153Z,99.90
2023-02-04T20:28:26.678Z,99.90
2023-02-04T20:30:59.240Z,99.90
2023-02-04T20:33:30.326Z,99.90
2023-02-04T20:36:28.114Z,99.90
2023-02-04T20:39:14.924Z,99.90
2023-02-04T20:41:43.769Z,99.90
2023-02-04T20:44:17.532Z,99.90
2023-02-04T20:46:47.020Z,99.90
2023-02-04T20:49:24.788Z,99.90
2023-02-04T20:51:56.970Z,1.00
2023-02-04T20:54:25.142Z,1.00
2023-02-04T20:56:53.745Z,99.90
2023-02-04T20:59:31.140Z,1.00
2023-02-04T21:02:04.702Z,1.00
2023-02-04T21:04:36.981Z,99.90
2023-02-04T21:07:14.812Z,1.00
2023-02-04T21:09:43.140Z,1.00
2023-02-04T21:12:11.443Z,99.90
2023-02-04T21:14:39.772Z,99.90
2023-02-04T21:17:09.426Z,99.90
2023-02-04T21:19:37.794Z,99.90
2023-02-04T21:22:05.889Z,1.00
2023-02-04T21:24:34.198Z,1.00
2023-02-04T21:27:02.741Z,1.00
2023-02-04T21:29:30.877Z,1.00
2023-02-04T21:31:59.124Z,1.00
2023-02-04T21:34:28.774Z,1.00
2023-02-04T21:36:57.104Z,1.00
2023-02-04T21:39:25.239Z,1.00
2023-02-04T21:42:10.156Z,1.00
2023-02-04T21:44:39.071Z,1.00
2023-02-04T21:47:07.573Z,1.00
2023-02-04T21:49:41.259Z,1.00
2023-02-04T21:52:10.982Z,1.00
2023-02-04T21:54:39.128Z,1.00
2023-02-04T21:57:07.294Z,1.00
2023-02-04T21:59:35.703Z,1.00
2023-02-04T22:02:03.809Z,1.00
2023-02-04T22:04:32.008Z,1.00
2023-02-04T22:07:02.312Z,1.00
2023-02-04T22:09:30.483Z,1.00
2023-02-04T22:11:58.552Z,1.00
2023-02-04T22:14:26.623Z,1.00
2023-02-04T22:16:54.802Z,1.00
2023-02-04T22:19:23.029Z,1.00
2023-02-04T22:21:51.129Z,1.00
2023-02-04T22:24:20.550Z,99.90
2023-02-04T22:26:50.512Z,99.90
2023-02-04T22:29:21.720Z,16.70
2023-02-04T22:31:49.857Z,21.10
2023-02-04T22:34:18.142Z,65.40
2023-02-04T22:36:46.189Z,99.90
2023-02-04T22:39:14.202Z,99.90
2023-02-04T22:41:43.621Z,99.90
2023-02-04T22:44:11.697Z,99.90
2023-02-04T22:46:39.918Z,99.90
2023-02-04T22:49:08.101Z,99.90
2023-02-04T22:51:36.185Z,1.00
2023-02-04T22:54:04.428Z,1.00
2023-02-04T22:56:32.562Z,1.00
2023-02-04T22:59:02.155Z,1.00
2023-02-04T23:01:30.419Z,45.10
2023-02-04T23:03:58.427Z,99.90
2023-02-04T23:06:26.493Z,99.90
2023-02-04T23:08:54.942Z,99.90
2023-02-04T23:11:23.267Z,99.90
2023-02-04T23:13:51.773Z,99.90
2023-02-04T23:16:21.223Z,99.90
2023-02-04T23:18:49.444Z,99.90
2023-02-04T23:21:17.593Z,99.90
2023-02-04T23:23:45.820Z,99.90
2023-02-04T23:26:13.940Z,1.00
2023-02-04T23:28:42.061Z,1.00
2023-02-04T23:31:10.709Z,1.00
2023-02-04T23:33:40.309Z,1.00
2023-02-04T23:36:09.252Z,1.00
2023-02-04T23:38:37.364Z,1.00
2023-02-04T23:41:05.737Z,1.00
2023-02-04T23:43:33.781Z,1.00
2023-02-04T23:46:01.887Z,99.90
2023-02-04T23:48:30.241Z,1.00
2023-02-04T23:50:59.738Z,1.00
2023-02-04T23:53:27.849Z,1.00
2023-02-04T23:55:56.002Z,1.00
2023-02-04T23:58:24.238Z,99.90
